createdAt,value
2018-02-06T00:00:37.634Z,101306
2018-02-06T00:03:05.870Z,101295
2018-02-06T00:05:34.123Z,101300
2018-02-06T00:08:03.208Z,101320
2018-02-06T00:10:32.274Z,101315
2018-02-06T00:13:00.582Z,101310
2018-02-06T00:15:29.588Z,101306
2018-02-06T00:17:57.874Z,101281
2018-02-06T00:20:26.152Z,101267
2018-02-06T00:22:54.421Z,101292
2018-02-06T00:25:22.711Z,101273
2018-02-06T00:27:51.018Z,101277
2018-02-06T00:30:19.244Z,101268
2018-02-06T00:32:48.250Z,101263
2018-02-06T00:35:16.518Z,101261
2018-02-06T00:37:44.830Z,101257
2018-02-06T00:40:13.070Z,101273
2018-02-06T00:42:41.337Z,101273
2018-02-06T00:45:10.385Z,101257
2018-02-06T00:47:38.628Z,101253
2018-02-06T00:50:06.930Z,101261
2018-02-06T00:52:35.167Z,101255
2018-02-06T00:55:03.410Z,101254
2018-02-06T00:57:31.779Z,101257
2018-02-06T01:00:00.018Z,101260
2018-02-06T01:02:28.276Z,101271
2018-02-06T01:04:56.583Z,101252
2018-02-06T01:07:24.840Z,101251
2018-02-06T01:09:53.084Z,101276
2018-02-06T01:12:22.125Z,101286
2018-02-06T01:14:51.134Z,101281
2018-02-06T01:17:19.429Z,101262
2018-02-06T01:19:47.680Z,101236
2018-02-06T01:22:15.920Z,101235
2018-02-06T01:24:44.196Z,101220
2018-02-06T01:27:12.431Z,101220
2018-02-06T01:29:40.681Z,101225
2018-02-06T01:32:08.952Z,101229
2018-02-06T01:34:37.168Z,101245
2018-02-06T01:37:06.230Z,101244
2018-02-06T01:39:34.468Z,101259
2018-02-06T01:42:02.703Z,101221
2018-02-06T01:44:30.997Z,101217
2018-02-06T01:47:00.007Z,101213
2018-02-06T01:49:28.276Z,101206
2018-02-06T01:51:56.537Z,101198
2018-02-06T01:54:25.525Z,101191
2018-02-06T01:56:54.538Z,101179
2018-02-06T01:59:22.986Z,101184
2018-02-06T02:01:51.224Z,101184
2018-02-06T02:04:19.450Z,101182
2018-02-06T02:06:48.502Z,101192
2018-02-06T02:09:16.803Z,101178
2018-02-06T02:11:45.020Z,101190
2018-02-06T02:14:13.240Z,101188
2018-02-06T02:16:42.722Z,101185
2018-02-06T02:19:10.983Z,101195
2018-02-06T02:21:39.217Z,101193
2018-02-06T02:24:08.254Z,101181
2018-02-06T02:26:36.488Z,101184
2018-02-06T02:29:05.571Z,101185
2018-02-06T02:31:33.810Z,101199
2018-02-06T02:34:02.037Z,101185
2018-02-06T02:36:31.090Z,101180
2018-02-06T02:38:59.584Z,101166
2018-02-06T02:41:27.810Z,101170
2018-02-06T04:40:12.615Z,101077
2018-02-06T04:42:41.109Z,101076
2018-02-06T04:45:09.355Z,101076
2018-02-06T04:47:38.382Z,101092
2018-02-06T04:50:06.650Z,101083
2018-02-06T04:52:34.935Z,101075
2018-02-06T04:55:03.206Z,101086
2018-02-06T04:57:31.505Z,101077
2018-02-06T04:59:59.728Z,101072
2018-02-06T05:02:28.702Z,101077
2018-02-06T05:04:56.990Z,101078
2018-02-06T05:07:25.985Z,101069
2018-02-06T05:09:54.985Z,101070
2018-02-06T05:12:24.037Z,101062
2018-02-06T05:14:52.276Z,101064
2018-02-06T05:17:20.496Z,101066
2018-02-06T05:19:48.762Z,101060
2018-02-06T05:22:17.001Z,101074
2018-02-06T05:24:45.240Z,101076
2018-02-06T05:27:13.526Z,101068
2018-02-06T05:29:42.536Z,101067
2018-02-06T05:32:10.772Z,101072
2018-02-06T05:34:39.069Z,101056
2018-02-06T05:37:08.065Z,101057
2018-02-06T05:39:37.056Z,101059
2018-02-06T05:42:06.077Z,101058
2018-02-06T05:44:34.374Z,101057
2018-02-06T05:47:02.601Z,101053
2018-02-06T05:49:31.601Z,101050
2018-02-06T05:52:00.647Z,101052
2018-02-06T05:54:29.659Z,101047
2018-02-06T05:56:57.907Z,101047
2018-02-06T05:59:26.244Z,101042
2018-02-06T06:01:54.468Z,101044
2018-02-06T06:04:22.732Z,101043
2018-02-06T06:06:51.030Z,101082
2018-02-06T06:09:19.290Z,101083
2018-02-06T06:11:47.534Z,101067
2018-02-06T06:14:15.837Z,101056
2018-02-06T06:16:44.067Z,101052
2018-02-06T06:19:13.081Z,101044
2018-02-06T06:21:41.373Z,101049
2018-02-06T06:24:09.627Z,101043
2018-02-06T06:26:37.873Z,101050
2018-02-06T06:29:06.929Z,101053
2018-02-06T06:31:35.198Z,101056
2018-02-06T06:34:03.421Z,101045
2018-02-06T06:36:32.502Z,101046
2018-02-06T06:39:01.537Z,101043
2018-02-06T06:41:29.762Z,101036
2018-02-06T06:43:58.046Z,101035
2018-02-06T06:46:27.062Z,101030
2018-02-06T06:48:55.307Z,101042
2018-02-06T06:51:23.584Z,101045
2018-02-06T06:53:51.832Z,101051
2018-02-06T06:56:20.129Z,101062
2018-02-06T06:58:48.367Z,101048
2018-02-06T07:01:16.595Z,101047
2018-02-06T07:03:45.643Z,101048
2018-02-06T07:06:13.880Z,101042
2018-02-06T07:08:42.889Z,101032
2018-02-06T07:11:11.196Z,101034
2018-02-06T07:13:39.456Z,101038
2018-02-06T07:16:07.680Z,101036
2018-02-06T07:18:36.097Z,101040
2018-02-06T07:21:04.342Z,101037
2018-02-06T07:23:33.425Z,101039
2018-02-06T07:26:01.721Z,101028
2018-02-06T07:28:30.797Z,101039
2018-02-06T07:30:59.079Z,101033
2018-02-06T07:33:27.347Z,101058
2018-02-06T07:35:55.608Z,101042
2018-02-06T07:38:23.892Z,101036
2018-02-06T07:40:52.159Z,101045
2018-02-06T07:43:20.438Z,101036
2018-02-06T07:45:48.799Z,101037
2018-02-06T07:48:17.795Z,101034
2018-02-06T07:50:46.055Z,101026
2018-02-06T07:53:14.347Z,101024
2018-02-06T07:55:42.652Z,101027
2018-02-06T07:58:11.728Z,101029
2018-02-06T08:00:39.970Z,101034
2018-02-06T08:03:08.219Z,101045
2018-02-06T08:05:37.316Z,101041
2018-02-06T08:08:05.559Z,101041
2018-02-06T08:10:34.584Z,101035
2018-02-06T08:13:02.916Z,101039
2018-02-06T08:15:31.918Z,101037
2018-02-06T08:18:00.169Z,101027
2018-02-06T08:20:28.498Z,101038
2018-02-06T08:22:56.824Z,101033
2018-02-06T08:25:25.062Z,101036
2018-02-06T08:27:53.333Z,101030
2018-02-06T08:30:21.566Z,101039
2018-02-06T08:32:49.896Z,101022
2018-02-06T08:35:18.218Z,101016
2018-02-06T08:37:46.454Z,101031
2018-02-06T08:40:14.753Z,101020
2018-02-06T08:42:43.008Z,101019
2018-02-06T08:45:11.301Z,101018
2018-02-06T08:47:39.651Z,101022
2018-02-06T08:50:07.922Z,101027
2018-02-06T08:52:36.179Z,101026
2018-02-06T08:55:05.270Z,101022
2018-02-06T08:57:34.290Z,101034
2018-02-06T09:00:02.509Z,101020
2018-02-06T09:02:30.830Z,101016
2018-02-06T09:04:59.850Z,101012
2018-02-06T09:07:28.104Z,101007
2018-02-06T09:09:56.429Z,101003
2018-02-06T09:12:24.687Z,100986
2018-02-06T09:14:52.952Z,100990
2018-02-06T09:17:21.288Z,100990
2018-02-06T09:19:50.337Z,100994
2018-02-06T09:22:18.603Z,100997
2018-02-06T09:24:46.883Z,100990
2018-02-06T09:27:15.153Z,100996
2018-02-06T09:29:43.478Z,100997
2018-02-06T09:32:11.755Z,100993
2018-02-06T09:34:40.060Z,100993
2018-02-06T09:37:08.357Z,100992
2018-02-06T09:39:36.612Z,100987
2018-02-06T09:42:04.869Z,100997
2018-02-06T09:44:34.030Z,101004
2018-02-06T09:47:02.281Z,100990
2018-02-06T09:49:30.529Z,100984
2018-02-06T09:51:58.947Z,100982
2018-02-06T09:54:27.202Z,100986
2018-02-06T09:56:55.457Z,100974
2018-02-06T09:59:23.829Z,100972
2018-02-06T10:01:52.863Z,100982
2018-02-06T10:04:21.107Z,100977
2018-02-06T10:06:49.419Z,100973
2018-02-06T10:09:17.696Z,100962
2018-02-06T10:11:45.969Z,100965
2018-02-06T10:14:14.289Z,100966
2018-02-06T10:16:43.384Z,100967
2018-02-06T10:19:12.415Z,100953
2018-02-06T10:21:40.755Z,100957
2018-02-06T10:24:09.015Z,100959
2018-02-06T10:26:37.271Z,100955
2018-02-06T10:29:05.692Z,100950
2018-02-06T10:31:34.733Z,100955
2018-02-06T10:34:03.000Z,100942
2018-02-06T10:36:31.419Z,100947
2018-02-06T10:38:59.703Z,100942
2018-02-06T10:41:27.957Z,100940
2018-02-06T10:43:56.306Z,100938
2018-02-06T10:46:24.566Z,100939
2018-02-06T10:48:52.942Z,100928
2018-02-06T10:51:21.301Z,100919
2018-02-06T10:53:50.325Z,100921
2018-02-06T10:56:18.786Z,100923
2018-02-06T10:58:47.041Z,100926
2018-02-06T11:01:16.237Z,100922
2018-02-06T11:03:45.381Z,100920
2018-02-06T11:06:13.836Z,100921
2018-02-06T11:08:42.106Z,100917
2018-02-06T11:11:10.457Z,100918
2018-02-06T11:13:38.717Z,100909
2018-02-06T11:16:07.002Z,100912
2018-02-06T11:18:35.317Z,100916
2018-02-06T11:21:03.581Z,100901
2018-02-06T11:23:32.685Z,100895
2018-02-06T11:26:01.048Z,100895
2018-02-06T11:28:29.336Z,100895
2018-02-06T11:30:58.407Z,100892
2018-02-06T11:33:26.740Z,100883
2018-02-06T11:35:55.061Z,100870
2018-02-06T11:38:23.435Z,100873
2018-02-06T11:40:51.795Z,100862
2018-02-06T11:43:20.075Z,100864
2018-02-06T11:45:48.344Z,100873
2018-02-06T11:48:16.673Z,100866
2018-02-06T11:50:45.696Z,100875
2018-02-06T11:53:13.963Z,100870
2018-02-06T11:55:42.329Z,100881
2018-02-06T11:58:10.747Z,100873
2018-02-06T12:00:39.014Z,100866
2018-02-06T12:03:07.345Z,100851
2018-02-06T12:05:36.505Z,100855
2018-02-06T12:08:04.748Z,100852
2018-02-06T12:10:33.071Z,100846
2018-02-06T12:13:01.334Z,100852
2018-02-06T12:15:29.589Z,100849
2018-02-06T12:17:57.873Z,100839
2018-02-06T12:20:26.118Z,100832
2018-02-06T12:22:54.530Z,100832
2018-02-06T12:25:22.802Z,100824
2018-02-06T12:27:51.065Z,100825
2018-02-06T12:30:19.418Z,100827
2018-02-06T12:32:47.751Z,100830
2018-02-06T12:35:16.056Z,100815
2018-02-06T12:37:45.165Z,100818
2018-02-06T12:40:13.576Z,100819
2018-02-06T12:42:41.876Z,100814
2018-02-06T12:45:10.385Z,100811
2018-02-06T12:47:38.653Z,100812
2018-02-06T12:50:07.813Z,100798
2018-02-06T12:52:36.352Z,100802
2018-02-06T12:55:04.633Z,100799
2018-02-06T12:57:33.102Z,100793
2018-02-06T13:00:01.492Z,100782
2018-02-06T13:02:29.912Z,100789
2018-02-06T13:04:59.316Z,100792
2018-02-06T13:07:27.834Z,100780
2018-02-06T13:09:56.414Z,100774
2018-02-06T13:12:24.702Z,100777
2018-02-06T13:14:52.999Z,100771
2018-02-06T13:17:21.500Z,100772
2018-02-06T13:19:50.053Z,100770
2018-02-06T13:22:18.687Z,100768
2018-02-06T13:24:47.737Z,100768
2018-02-06T13:27:16.256Z,100763
2018-02-06T13:29:44.904Z,100767
2018-02-06T13:32:13.173Z,100770
2018-02-06T13:34:41.537Z,100756
2018-02-06T13:37:10.927Z,100759
2018-02-06T13:39:39.258Z,100762
2018-02-06T13:42:07.622Z,100754
2018-02-06T13:44:36.256Z,100751
2018-02-06T13:47:04.832Z,100752
2018-02-06T13:49:33.132Z,100750
2018-02-06T13:52:02.586Z,100736
2018-02-06T13:54:31.661Z,100741
2018-02-06T13:56:59.909Z,100732
2018-02-06T13:59:28.500Z,100731
2018-02-06T14:01:57.029Z,100731
2018-02-06T14:04:25.566Z,100722
2018-02-06T14:06:53.994Z,100728
2018-02-06T14:09:22.245Z,100727
2018-02-06T14:11:50.592Z,100722
2018-02-06T14:14:19.029Z,100724
2018-02-06T14:16:47.272Z,100708
2018-02-06T14:19:15.812Z,100707
2018-02-06T14:21:44.596Z,100718
2018-02-06T14:24:13.017Z,100713
2018-02-06T14:26:41.360Z,100721
2018-02-06T14:29:10.752Z,100708
2018-02-06T14:31:39.110Z,100712
2018-02-06T14:34:07.631Z,100711
2018-02-06T14:36:35.976Z,100703
2018-02-06T14:39:05.093Z,100702
2018-02-06T14:41:34.394Z,100699
2018-02-06T14:44:02.683Z,100704
2018-02-06T14:46:31.801Z,100699
2018-02-06T14:49:00.033Z,100703
2018-02-06T14:51:28.285Z,100708
2018-02-06T14:53:56.568Z,100707
2018-02-06T14:56:24.804Z,100701
2018-02-06T14:58:53.090Z,100696
2018-02-06T15:01:21.367Z,100682
2018-02-06T15:03:49.669Z,100678
2018-02-06T15:06:17.983Z,100683
2018-02-06T15:08:46.983Z,100680
2018-02-06T15:11:15.542Z,100678
2018-02-06T15:13:44.603Z,100681
2018-02-06T15:16:12.853Z,100680
2018-02-06T15:18:41.150Z,100678
2018-02-06T15:21:09.396Z,100673
2018-02-06T15:23:37.637Z,100680
2018-02-06T15:26:06.690Z,100684
2018-02-06T15:28:34.960Z,100681
2018-02-06T15:31:03.204Z,100678
2018-02-06T15:33:31.586Z,100675
2018-02-06T15:35:59.952Z,100676
2018-02-06T15:38:28.251Z,100681
2018-02-06T15:40:56.490Z,100675
2018-02-06T15:43:25.534Z,100678
2018-02-06T15:45:53.913Z,100673
2018-02-06T15:48:22.190Z,100670
2018-02-06T15:50:50.542Z,100668
2018-02-06T15:53:18.985Z,100677
2018-02-06T15:55:48.040Z,100671
2018-02-06T15:58:16.886Z,100677
2018-02-06T16:00:51.584Z,100676
2018-02-06T16:03:19.954Z,100669
2018-02-06T16:05:48.251Z,100669
2018-02-06T16:08:16.583Z,100664
2018-02-06T16:10:45.023Z,100662
2018-02-06T16:13:14.068Z,100673
2018-02-06T16:15:42.365Z,100663
2018-02-06T16:18:10.625Z,100667
2018-02-06T16:20:38.870Z,100662
2018-02-06T16:23:07.870Z,100658
2018-02-06T16:25:36.121Z,100657
2018-02-06T16:28:04.394Z,100652
2018-02-06T16:30:33.461Z,100658
2018-02-06T16:33:02.844Z,100657
2018-02-06T16:35:31.090Z,100660
2018-02-06T16:37:59.471Z,100661
2018-02-06T16:40:27.767Z,100667
2018-02-06T16:42:56.027Z,100655
2018-02-06T16:45:24.292Z,100664
2018-02-06T16:47:52.530Z,100664
2018-02-06T16:50:21.607Z,100659
2018-02-06T16:52:49.859Z,100656
2018-02-06T16:55:18.120Z,100652
2018-02-06T16:57:46.363Z,100660
2018-02-06T17:00:15.414Z,100655
2018-02-06T17:02:43.628Z,100658
2018-02-06T17:05:12.625Z,100652
2018-02-06T17:07:41.664Z,100648
2018-02-06T17:10:09.981Z,100658
2018-02-06T17:12:39.231Z,100655
2018-02-06T17:15:07.472Z,100656
2018-02-06T17:17:36.465Z,100655
2018-02-06T17:20:05.520Z,100655
2018-02-06T17:22:33.768Z,100659
2018-02-06T17:25:02.054Z,100655
2018-02-06T17:27:30.284Z,100655
2018-02-06T17:29:59.292Z,100659
2018-02-06T17:32:27.706Z,100660
2018-02-06T17:34:55.948Z,100654
2018-02-06T17:37:24.318Z,100655
2018-02-06T17:39:52.680Z,100649
2018-02-06T17:42:20.951Z,100651
2018-02-06T17:44:49.952Z,100655
2018-02-06T17:47:19.013Z,100657
2018-02-06T17:49:47.274Z,100659
2018-02-06T17:52:15.521Z,100652
2018-02-06T17:54:45.536Z,100646
2018-02-06T17:57:13.775Z,100647
2018-02-06T17:59:41.997Z,100643
2018-02-06T18:02:10.332Z,100651
2018-02-06T18:04:38.702Z,100638
2018-02-06T18:07:07.841Z,100635
2018-02-06T18:09:36.656Z,100640
2018-02-06T18:12:04.881Z,100632
2018-02-06T18:14:33.884Z,100643
2018-02-06T18:17:02.978Z,100642
2018-02-06T18:19:31.996Z,100634
2018-02-06T18:22:00.216Z,100639
2018-02-06T18:24:28.489Z,100630
2018-02-06T18:26:56.745Z,100626
2018-02-06T18:29:24.967Z,100625
2018-02-06T18:31:53.269Z,100627
2018-02-06T18:34:21.513Z,100630
2018-02-06T18:36:50.555Z,100626
2018-02-06T18:39:18.853Z,100630
2018-02-06T18:41:47.980Z,100632
2018-02-06T18:44:16.267Z,100635
2018-02-06T18:46:44.905Z,100636
2018-02-06T18:49:13.140Z,100638
2018-02-06T18:51:41.390Z,100633
2018-02-06T18:54:09.679Z,100635
2018-02-06T18:56:37.916Z,100643
2018-02-06T18:59:06.182Z,100646
2018-02-06T19:01:34.857Z,100639
2018-02-06T19:04:03.125Z,100636
2018-02-06T19:06:31.417Z,100638
2018-02-06T19:08:59.699Z,100630
2018-02-06T19:11:27.994Z,100626
2018-02-06T19:13:56.222Z,100621
2018-02-06T19:16:24.510Z,100625
2018-02-06T19:18:52.741Z,100626
2018-02-06T19:21:21.108Z,100619
2018-02-06T19:23:49.411Z,100622
2018-02-06T19:26:17.694Z,100619
2018-02-06T19:28:45.941Z,100618
2018-02-06T19:31:14.290Z,100619
2018-02-06T19:33:42.522Z,100620
2018-02-06T19:36:10.824Z,100626
2018-02-06T19:38:39.112Z,100628
2018-02-06T19:41:07.475Z,100623
2018-02-06T19:43:35.726Z,100617
2018-02-06T19:46:04.031Z,100622
2018-02-06T19:48:32.294Z,100626
2018-02-06T19:51:00.528Z,100625
2018-02-06T19:53:28.808Z,100623
2018-02-06T19:55:57.042Z,100627
2018-02-06T19:58:25.295Z,100631
2018-02-06T20:00:53.601Z,100628
2018-02-06T20:03:22.626Z,100629
2018-02-06T20:05:51.186Z,100627
2018-02-06T20:08:20.222Z,100624
2018-02-06T20:10:48.537Z,100629
2018-02-06T20:13:16.794Z,100624
2018-02-06T20:15:45.056Z,100613
2018-02-06T20:18:13.370Z,100624
2018-02-06T20:20:41.620Z,100629
2018-02-06T20:23:09.891Z,100627
2018-02-06T20:25:38.211Z,100623
2018-02-06T20:28:07.576Z,100631
2018-02-06T20:30:36.670Z,100630
2018-02-06T20:33:04.970Z,100624
2018-02-06T20:35:33.225Z,100615
2018-02-06T20:38:01.533Z,100619
2018-02-06T20:40:29.782Z,100614
2018-02-06T20:42:58.040Z,100622
2018-02-06T20:45:26.340Z,100621
2018-02-06T20:47:54.631Z,100621
2018-02-06T20:50:22.843Z,100622
2018-02-06T20:52:51.144Z,100621
2018-02-06T20:55:19.376Z,100618
2018-02-06T20:57:48.397Z,100615
2018-02-06T21:00:16.699Z,100616
2018-02-06T21:02:45.697Z,100616
2018-02-06T21:05:13.936Z,100620
2018-02-06T21:07:42.244Z,100620
2018-02-06T21:10:10.494Z,100623
2018-02-06T21:12:38.749Z,100621
2018-02-06T21:15:07.977Z,100623
2018-02-06T21:17:36.247Z,100612
2018-02-06T21:20:04.487Z,100609
2018-02-06T21:22:33.793Z,100605
2018-02-06T21:25:02.797Z,100595
2018-02-06T21:27:31.024Z,100592
2018-02-06T21:29:59.325Z,100598
2018-02-06T21:32:28.312Z,100595
2018-02-06T21:34:56.559Z,100581
2018-02-06T21:37:24.856Z,100587
2018-02-06T21:39:53.106Z,100580
2018-02-06T21:42:21.346Z,100590
2018-02-06T21:44:49.598Z,100596
2018-02-06T21:47:18.613Z,100589
2018-02-06T21:49:46.899Z,100593
2018-02-06T21:52:15.165Z,100582
2018-02-06T21:54:43.446Z,100580
2018-02-06T21:57:11.749Z,100578
2018-02-06T21:59:40.007Z,100577
2018-02-06T22:02:08.277Z,100583
2018-02-06T22:04:36.609Z,100586
2018-02-06T22:07:04.857Z,100587
2018-02-06T22:09:33.115Z,100582
2018-02-06T22:12:01.594Z,100580
2018-02-06T22:14:29.834Z,100573
2018-02-06T22:16:58.083Z,100576
2018-02-06T22:19:26.876Z,100573
2018-02-06T22:21:55.120Z,100563
2018-02-06T22:24:23.372Z,100566
2018-02-06T22:26:51.780Z,100564
2018-02-06T22:29:20.834Z,100563
2018-02-06T22:31:49.101Z,100559
2018-02-06T22:34:17.447Z,100554
2018-02-06T22:36:45.770Z,100550
2018-02-06T22:39:14.009Z,100548
2018-02-06T22:41:42.300Z,100547
2018-02-06T22:44:11.319Z,100542
2018-02-06T22:46:39.576Z,100541
2018-02-06T22:49:08.647Z,100536
2018-02-06T22:51:36.884Z,100528
2018-02-06T22:54:05.116Z,100541
2018-02-06T22:56:34.167Z,100527
2018-02-06T22:59:02.409Z,100523
2018-02-06T23:01:30.741Z,100529
2018-02-06T23:03:58.973Z,100522
2018-02-06T23:06:27.245Z,100521
2018-02-06T23:08:55.548Z,100516
2018-02-06T23:11:23.780Z,100515
2018-02-06T23:13:52.061Z,100513
2018-02-06T23:16:20.279Z,100510
2018-02-06T23:18:48.525Z,100508
2018-02-06T23:21:16.780Z,100499
2018-02-06T23:23:45.091Z,100497
2018-02-06T23:26:13.324Z,100503
2018-02-06T23:28:41.571Z,100505
2018-02-06T23:31:09.877Z,100511
2018-02-06T23:33:38.101Z,100514
2018-02-06T23:36:06.335Z,100502
2018-02-06T23:38:34.639Z,100502
2018-02-06T23:41:02.881Z,100505
2018-02-06T23:43:31.114Z,100514
2018-02-06T23:45:59.409Z,100511
2018-02-06T23:48:28.424Z,100506
2018-02-06T23:50:56.649Z,100509
2018-02-06T23:53:25.086Z,100500
2018-02-06T23:55:53.321Z,100500
2018-02-06T23:58:21.561Z,100504
